createdAt,value
2019-06-07T00:00:47.648Z,15.80
2019-06-07T00:03:27.403Z,15.70
2019-06-07T00:05:47.703Z,15.70
2019-06-07T00:08:25.082Z,15.80
2019-06-07T00:10:47.604Z,15.80
2019-06-07T00:13:18.774Z,15.80
2019-06-07T00:15:47.436Z,15.90
2019-06-07T00:18:23.572Z,15.90
2019-06-07T00:20:47.449Z,15.90
2019-06-07T00:23:20.665Z,15.80
2019-06-07T00:25:47.266Z,15.80
2019-06-07T00:30:52.812Z,15.80
2019-06-07T00:33:24.561Z,15.80
2019-06-07T00:35:52.748Z,15.80
2019-06-07T00:38:22.085Z,15.80
2019-06-07T00:40:51.329Z,15.80
2019-06-07T00:43:26.044Z,15.80
2019-06-07T00:45:51.189Z,15.80
2019-06-07T00:48:30.840Z,15.80
2019-06-07T00:50:50.991Z,15.80
2019-06-07T00:53:29.146Z,15.80
2019-06-07T00:55:50.740Z,15.80
2019-06-07T00:58:24.740Z,15.80
2019-06-07T01:00:50.989Z,15.80
2019-06-07T01:03:23.541Z,15.80
2019-06-07T01:05:50.933Z,15.80
2019-06-07T01:08:22.787Z,15.80
2019-06-07T01:10:53.910Z,15.80
2019-06-07T01:13:24.128Z,15.70
2019-06-07T01:15:52.245Z,15.80
2019-06-07T01:18:41.288Z,15.70
2019-06-07T01:20:52.073Z,15.70
2019-06-07T01:24:03.373Z,15.70
2019-06-07T01:25:52.119Z,15.60
2019-06-07T01:28:24.336Z,15.60
2019-06-07T01:30:52.445Z,15.60
2019-06-07T01:33:23.508Z,15.60
2019-06-07T01:35:52.285Z,15.60
2019-06-07T01:38:24.357Z,15.50
2019-06-07T01:40:52.158Z,15.60
2019-06-07T01:43:26.116Z,15.60
2019-06-07T01:45:51.846Z,15.50
2019-06-07T01:48:23.189Z,15.50
2019-06-07T01:50:51.446Z,15.50
2019-06-07T01:53:23.395Z,15.40
2019-06-07T01:55:51.200Z,15.40
2019-06-07T01:58:22.066Z,15.40
2019-06-07T02:00:51.293Z,15.30
2019-06-07T02:03:22.317Z,15.20
2019-06-07T02:05:51.098Z,15.10
2019-06-07T02:08:21.693Z,15.10
2019-06-07T02:10:50.917Z,15.00
2019-06-07T02:13:21.200Z,15.00
2019-06-07T02:15:50.254Z,14.90
2019-06-07T02:18:21.833Z,14.90
2019-06-07T02:20:49.981Z,14.80
2019-06-07T02:23:20.733Z,14.80
2019-06-07T02:25:50.744Z,14.80
2019-06-07T02:28:29.944Z,14.70
2019-06-07T02:31:00.185Z,14.70
2019-06-07T02:33:24.765Z,14.60
2019-06-07T02:35:52.073Z,14.60
2019-06-07T02:38:23.125Z,14.60
2019-06-07T02:40:51.787Z,14.60
2019-06-07T02:43:22.124Z,14.60
2019-06-07T02:45:51.235Z,14.60
2019-06-07T02:48:24.515Z,14.60
2019-06-07T02:50:54.092Z,14.50
2019-06-07T02:53:25.249Z,14.50
2019-06-07T02:58:26.132Z,14.50
2019-06-07T03:01:07.095Z,14.50
2019-06-07T03:03:29.930Z,14.40
2019-06-07T03:05:57.260Z,14.40
2019-06-07T03:08:30.952Z,14.40
2019-06-07T03:11:01.349Z,14.40
2019-06-07T03:13:35.022Z,14.40
2019-06-07T03:16:06.330Z,14.40
2019-06-07T03:18:59.593Z,14.50
2019-06-07T03:21:29.504Z,14.50
2019-06-07T03:23:59.737Z,14.50
2019-06-07T03:26:31.236Z,14.50
2019-06-07T03:29:00.236Z,14.50
2019-06-07T03:31:35.349Z,14.60
2019-06-07T03:33:59.917Z,14.70
2019-06-07T03:36:32.024Z,14.90
2019-06-07T03:39:00.997Z,15.10
2019-06-07T03:41:38.629Z,15.40
2019-06-07T03:44:00.752Z,15.90
2019-06-07T03:46:36.220Z,16.10
2019-06-07T03:49:02.361Z,16.20
2019-06-07T03:51:32.920Z,16.50
2019-06-07T03:54:02.542Z,16.60
2019-06-07T03:56:33.154Z,16.60
2019-06-07T03:59:02.360Z,16.70
2019-06-07T04:01:32.351Z,16.50
2019-06-07T04:04:01.908Z,16.20
2019-06-07T04:06:32.497Z,16.00
2019-06-07T04:09:01.510Z,15.90
2019-06-07T04:11:32.512Z,15.80
2019-06-07T04:14:01.474Z,15.80
2019-06-07T04:16:34.960Z,15.80
2019-06-07T04:19:01.289Z,15.80
2019-06-07T04:21:31.950Z,15.60
2019-06-07T04:24:01.065Z,15.50
2019-06-07T04:26:31.382Z,15.40
2019-06-07T04:31:32.618Z,15.20
2019-06-07T04:34:02.247Z,15.20
2019-06-07T04:36:45.937Z,15.20
2019-06-07T04:39:02.528Z,15.60
2019-06-07T04:41:33.620Z,16.50
2019-06-07T04:44:03.417Z,17.30
2019-06-07T04:46:35.188Z,18.00
2019-06-07T04:49:05.219Z,18.70
2019-06-07T04:51:37.134Z,18.70
2019-06-07T04:54:05.617Z,19.00
2019-06-07T04:56:40.896Z,19.20
2019-06-07T04:59:05.381Z,19.30
2019-06-07T05:01:36.757Z,19.40
2019-06-07T05:04:05.467Z,19.50
2019-06-07T05:06:36.306Z,19.60
2019-06-07T05:09:06.244Z,19.80
2019-06-07T05:11:36.474Z,20.10
2019-06-07T05:14:06.038Z,19.80
2019-06-07T05:16:38.296Z,19.80
2019-06-07T05:19:05.833Z,20.00
2019-06-07T05:21:58.639Z,20.10
2019-06-07T05:24:09.999Z,20.00
2019-06-07T05:26:39.149Z,20.20
2019-06-07T05:29:07.740Z,20.70
2019-06-07T05:31:39.596Z,20.40
2019-06-07T05:34:07.630Z,20.40
2019-06-07T05:36:41.403Z,20.40
2019-06-07T05:39:07.945Z,20.00
2019-06-07T05:41:40.661Z,19.20
2019-06-07T05:44:12.620Z,18.40
2019-06-07T05:46:41.315Z,18.00
2019-06-07T05:49:09.301Z,17.80
2019-06-07T05:51:42.808Z,17.60
2019-06-07T05:54:09.069Z,17.50
2019-06-07T05:56:39.447Z,17.50
2019-06-07T05:59:08.768Z,17.40
2019-06-07T06:01:44.991Z,17.40
2019-06-07T06:04:08.516Z,17.30
2019-06-07T06:06:39.601Z,17.20
2019-06-07T06:09:13.732Z,17.20
2019-06-07T06:11:52.152Z,17.30
2019-06-07T06:14:09.665Z,17.60
2019-06-07T06:16:39.870Z,17.70
2019-06-07T06:19:09.442Z,17.80
2019-06-07T06:21:38.632Z,17.80
2019-06-07T06:24:07.809Z,18.00
2019-06-07T06:26:40.734Z,18.00
2019-06-07T06:29:07.588Z,18.10
2019-06-07T06:31:38.016Z,18.00
2019-06-07T06:34:07.353Z,18.10
2019-06-07T06:36:37.354Z,18.10
2019-06-07T06:39:07.648Z,18.10
2019-06-07T06:41:50.725Z,18.10
2019-06-07T06:44:07.628Z,18.10
2019-06-07T06:46:40.922Z,18.20
2019-06-07T06:49:07.549Z,18.30
2019-06-07T06:51:36.708Z,18.30
2019-06-07T06:54:05.917Z,18.50
2019-06-07T06:56:35.113Z,18.50
2019-06-07T07:01:35.006Z,18.70
2019-06-07T07:04:12.225Z,18.80
2019-06-07T07:06:36.508Z,18.80
2019-06-07T07:09:07.011Z,18.70
2019-06-07T07:11:52.319Z,18.70
2019-06-07T07:14:07.178Z,18.80
2019-06-07T07:16:36.337Z,18.90
2019-06-07T07:19:05.682Z,19.00
2019-06-07T07:21:34.830Z,18.90
2019-06-07T07:24:21.003Z,19.10
2019-06-07T07:26:35.764Z,19.30
2019-06-07T07:29:05.115Z,19.40
2019-06-07T07:31:34.292Z,19.60
2019-06-07T07:36:39.508Z,19.70
2019-06-07T07:39:07.010Z,19.60
2019-06-07T07:41:36.141Z,19.60
2019-06-07T07:44:07.618Z,19.50
2019-06-07T07:46:36.422Z,19.60
2019-06-07T07:49:05.566Z,19.70
2019-06-07T07:51:34.640Z,19.80
2019-06-07T07:54:10.600Z,20.10
2019-06-07T07:56:34.568Z,20.20
2019-06-07T07:59:03.908Z,20.10
2019-06-07T08:01:32.960Z,20.10
2019-06-07T08:04:02.143Z,20.10
2019-06-07T08:06:31.173Z,20.10
2019-06-07T08:09:00.345Z,20.30
2019-06-07T08:11:29.393Z,20.30
2019-06-07T08:13:58.918Z,20.30
2019-06-07T08:16:28.184Z,20.60
2019-06-07T08:19:03.598Z,20.60
2019-06-07T08:21:28.450Z,20.70
2019-06-07T08:24:01.416Z,20.80
2019-06-07T08:26:28.421Z,21.20
2019-06-07T08:29:02.328Z,21.50
2019-06-07T08:31:28.261Z,21.60
2019-06-07T08:34:00.439Z,21.50
2019-06-07T08:36:41.512Z,21.70
2019-06-07T08:39:07.055Z,22.00
2019-06-07T08:41:29.564Z,21.80
2019-06-07T08:44:04.205Z,21.80
2019-06-07T08:46:29.597Z,22.10
2019-06-07T08:49:03.902Z,22.10
2019-06-07T08:51:29.508Z,22.30
2019-06-07T08:54:15.852Z,22.40
2019-06-07T08:56:29.416Z,22.50
2019-06-07T08:59:03.117Z,22.60
2019-06-07T09:01:29.260Z,22.40
2019-06-07T09:04:02.634Z,22.20
2019-06-07T09:09:02.009Z,21.60
2019-06-07T09:11:30.628Z,21.40
2019-06-07T09:14:02.916Z,21.50
2019-06-07T09:16:30.915Z,21.80
2019-06-07T09:19:03.869Z,22.30
2019-06-07T09:21:30.771Z,22.60
2019-06-07T09:24:06.582Z,23.20
2019-06-07T09:26:30.754Z,23.50
2019-06-07T09:29:05.408Z,23.80
2019-06-07T09:31:51.394Z,23.90
2019-06-07T09:34:08.646Z,24.30
2019-06-07T09:36:34.314Z,24.40
2019-06-07T09:39:08.395Z,24.10
2019-06-07T09:41:47.790Z,23.60
2019-06-07T09:44:21.595Z,23.30
2019-06-07T09:46:37.814Z,23.10
2019-06-07T09:49:19.180Z,22.90
2019-06-07T09:51:37.644Z,22.70
2019-06-07T09:54:08.785Z,22.60
2019-06-07T09:56:37.639Z,22.50
2019-06-07T09:59:12.300Z,22.60
2019-06-07T10:01:37.685Z,22.60
2019-06-07T10:04:16.541Z,22.60
2019-06-07T10:06:37.465Z,23.10
2019-06-07T10:11:38.907Z,23.70
2019-06-07T10:14:08.773Z,23.90
2019-06-07T10:16:46.815Z,23.90
2019-06-07T10:19:09.870Z,24.40
2019-06-07T10:21:39.142Z,24.80
2019-06-07T10:24:09.622Z,24.50
2019-06-07T10:26:38.890Z,24.40
2019-06-07T10:29:09.053Z,25.00
2019-06-07T10:31:38.790Z,25.30
2019-06-07T10:34:08.438Z,24.90
2019-06-07T10:36:37.875Z,24.20
2019-06-07T10:39:09.096Z,23.80
2019-06-07T10:41:38.265Z,23.70
2019-06-07T10:44:07.355Z,23.40
2019-06-07T10:46:36.467Z,23.40
2019-06-07T10:49:06.122Z,23.40
2019-06-07T10:51:35.500Z,23.40
2019-06-07T10:54:11.300Z,23.70
2019-06-07T10:56:35.605Z,24.10
2019-06-07T10:59:05.210Z,24.60
2019-06-07T11:01:36.341Z,25.00
2019-06-07T11:04:05.780Z,25.60
2019-06-07T11:06:34.842Z,26.00
2019-06-07T11:09:06.033Z,26.00
2019-06-07T11:11:35.119Z,26.00
2019-06-07T11:14:04.751Z,26.10
2019-06-07T11:16:33.888Z,26.20
2019-06-07T11:19:03.084Z,25.90
2019-06-07T11:21:32.248Z,25.40
2019-06-07T11:24:01.308Z,25.50
2019-06-07T11:26:30.317Z,26.20
2019-06-07T11:28:59.392Z,26.50
2019-06-07T11:31:28.496Z,26.20
2019-06-07T11:33:57.643Z,25.70
2019-06-07T11:36:26.680Z,25.40
2019-06-07T11:38:55.734Z,25.30
2019-06-07T11:41:24.969Z,25.10
2019-06-07T11:43:54.042Z,25.10
2019-06-07T11:46:23.100Z,25.40
2019-06-07T11:48:52.108Z,25.70
2019-06-07T11:51:21.171Z,25.50
2019-06-07T11:53:50.208Z,25.20
2019-06-07T11:56:19.300Z,25.00
2019-06-07T11:58:48.440Z,25.20
2019-06-07T12:01:18.676Z,24.90
2019-06-07T12:03:47.962Z,24.80
2019-06-07T12:06:18.145Z,25.00
2019-06-07T12:08:47.357Z,25.30
2019-06-07T12:11:16.633Z,25.10
2019-06-07T12:13:45.814Z,25.00
2019-06-07T12:16:15.412Z,25.20
2019-06-07T12:18:44.675Z,25.50
2019-06-07T12:21:13.815Z,25.70
2019-06-07T12:23:42.928Z,25.90
2019-06-07T12:26:12.319Z,25.50
2019-06-07T12:28:41.513Z,25.20
2019-06-07T12:31:10.903Z,25.10
2019-06-07T12:33:40.250Z,25.30
2019-06-07T12:36:09.383Z,25.60
2019-06-07T12:38:38.452Z,25.80
2019-06-07T12:41:07.561Z,25.90
2019-06-07T12:43:36.665Z,25.30
2019-06-07T12:46:05.792Z,25.00
2019-06-07T12:48:35.013Z,24.60
2019-06-07T12:51:04.166Z,24.70
2019-06-07T12:53:33.570Z,24.90
2019-06-07T12:56:02.554Z,25.30
2019-06-07T12:58:36.231Z,25.60
2019-06-07T13:01:02.420Z,25.70
2019-06-07T13:03:31.550Z,26.00
2019-06-07T13:06:00.573Z,26.20
2019-06-07T13:08:29.568Z,25.80
2019-06-07T13:11:14.104Z,25.60
2019-06-07T13:13:29.331Z,25.70
2019-06-07T13:15:58.384Z,25.70
2019-06-07T13:18:28.551Z,25.90
2019-06-07T13:20:57.676Z,26.20
2019-06-07T13:23:26.754Z,26.20
2019-06-07T13:25:55.730Z,26.00
2019-06-07T13:28:24.860Z,26.00
2019-06-07T13:30:53.929Z,26.10
2019-06-07T13:33:23.828Z,26.00
2019-06-07T13:35:53.678Z,25.90
2019-06-07T13:38:26.752Z,25.80
2019-06-07T13:40:56.788Z,25.80
2019-06-07T13:43:26.020Z,26.00
2019-06-07T13:45:55.061Z,26.10
2019-06-07T13:48:25.257Z,26.10
2019-06-07T13:50:54.429Z,26.10
2019-06-07T13:53:24.989Z,26.30
2019-06-07T13:55:54.165Z,26.50
2019-06-07T13:58:24.241Z,26.60
2019-06-07T14:00:53.349Z,26.20
2019-06-07T14:03:26.579Z,26.20
2019-06-07T14:05:53.172Z,26.20
2019-06-07T14:08:23.281Z,26.20
2019-06-07T14:10:52.472Z,26.20
2019-06-07T14:13:21.605Z,26.20
2019-06-07T14:15:50.825Z,25.90
2019-06-07T14:18:20.370Z,25.90
2019-06-07T14:20:49.580Z,25.90
2019-06-07T14:23:37.934Z,25.90
2019-06-07T14:25:49.595Z,26.00
2019-06-07T14:28:18.589Z,26.00
2019-06-07T14:30:47.628Z,25.60
2019-06-07T14:33:16.657Z,25.90
2019-06-07T14:35:45.655Z,26.00
2019-06-07T14:38:14.697Z,26.00
2019-06-07T14:40:43.666Z,26.20
2019-06-07T14:43:12.689Z,26.40
2019-06-07T14:45:41.777Z,26.10
2019-06-07T14:48:10.885Z,25.90
2019-06-07T14:50:39.848Z,25.70
2019-06-07T14:53:08.852Z,25.70
2019-06-07T14:55:37.915Z,25.90
2019-06-07T14:58:07.069Z,26.10
2019-06-07T15:00:41.646Z,26.30
2019-06-07T15:03:10.885Z,26.20
2019-06-07T15:05:40.597Z,26.30
2019-06-07T15:08:09.790Z,26.30
2019-06-07T15:10:39.284Z,26.50
2019-06-07T15:13:08.562Z,26.40
2019-06-07T15:15:38.916Z,26.40
2019-06-07T15:18:08.260Z,26.30
2019-06-07T15:20:38.418Z,26.30
2019-06-07T15:23:07.662Z,26.20
2019-06-07T15:25:36.731Z,26.20
2019-06-07T15:28:05.838Z,26.20
2019-06-07T15:30:35.739Z,26.20
2019-06-07T15:33:05.132Z,26.10
2019-06-07T15:35:35.982Z,26.00
2019-06-07T15:38:05.001Z,25.90
2019-06-07T15:40:35.285Z,25.80
2019-06-07T15:43:04.429Z,26.00
2019-06-07T15:45:33.710Z,26.20
2019-06-07T15:48:02.935Z,26.20
2019-06-07T15:50:32.231Z,26.20
2019-06-07T15:53:01.653Z,26.10
2019-06-07T15:55:32.000Z,26.10
2019-06-07T15:58:01.437Z,26.20
2019-06-07T16:00:31.394Z,26.20
2019-06-07T16:03:00.488Z,26.30
2019-06-07T16:05:29.452Z,26.50
2019-06-07T16:07:58.541Z,26.40
2019-06-07T16:10:27.653Z,26.40
2019-06-07T16:13:00.567Z,26.80
2019-06-07T16:15:27.454Z,27.70
2019-06-07T16:17:56.570Z,29.00
2019-06-07T16:20:25.762Z,30.00
2019-06-07T16:22:54.821Z,30.50
2019-06-07T16:25:24.416Z,30.80
2019-06-07T16:27:53.511Z,31.00
2019-06-07T16:30:22.878Z,31.00
2019-06-07T16:32:51.956Z,31.20
2019-06-07T16:35:21.829Z,31.80
2019-06-07T16:37:52.347Z,31.70
2019-06-07T16:40:22.101Z,31.50
2019-06-07T16:42:51.055Z,31.60
2019-06-07T16:45:21.316Z,31.80
2019-06-07T16:47:50.253Z,31.80
2019-06-07T16:50:19.278Z,31.50
2019-06-07T16:52:48.761Z,31.40
2019-06-07T16:55:19.389Z,31.30
2019-06-07T16:57:49.187Z,31.00
2019-06-07T17:00:19.162Z,31.50
2019-06-07T17:02:48.839Z,31.40
2019-06-07T17:05:18.554Z,31.60
2019-06-07T17:07:48.988Z,31.00
2019-06-07T17:10:19.865Z,31.30
2019-06-07T17:12:49.098Z,31.40
2019-06-07T17:15:19.161Z,31.50
2019-06-07T17:17:49.273Z,31.50
2019-06-07T17:20:18.980Z,31.20
2019-06-07T17:22:47.965Z,31.00
2019-06-07T17:25:17.332Z,31.40
2019-06-07T17:27:48.105Z,31.20
2019-06-07T17:30:17.854Z,30.80
2019-06-07T17:32:53.837Z,31.00
2019-06-07T17:35:17.859Z,31.20
2019-06-07T17:37:48.240Z,31.30
2019-06-07T17:40:17.992Z,31.10
2019-06-07T17:42:46.950Z,31.00
2019-06-07T17:45:16.651Z,30.80
2019-06-07T17:47:45.993Z,30.50
2019-06-07T17:50:16.488Z,30.40
2019-06-07T17:52:45.927Z,30.40
2019-06-07T17:55:15.794Z,30.10
2019-06-07T17:57:44.747Z,29.80
2019-06-07T18:00:28.082Z,29.40
2019-06-07T18:02:46.663Z,29.20
2019-06-07T18:05:16.141Z,28.90
2019-06-07T18:07:47.769Z,28.70
2019-06-07T18:10:27.148Z,28.50
2019-06-07T18:12:56.148Z,28.40
2019-06-07T18:15:36.667Z,28.20
2019-06-07T18:18:05.965Z,28.10
2019-06-07T18:20:35.065Z,28.10
2019-06-07T18:23:04.201Z,27.90
2019-06-07T18:25:33.283Z,27.90
2019-06-07T18:28:02.377Z,27.90
2019-06-07T18:30:31.543Z,27.80
2019-06-07T18:33:00.609Z,27.80
2019-06-07T18:35:29.580Z,27.40
2019-06-07T18:37:59.309Z,27.10
2019-06-07T18:40:28.690Z,26.80
2019-06-07T18:42:57.743Z,26.60
2019-06-07T18:45:27.181Z,26.30
2019-06-07T18:47:56.182Z,26.00
2019-06-07T18:50:25.284Z,25.70
2019-06-07T18:52:54.876Z,25.40
2019-06-07T18:55:24.052Z,25.10
2019-06-07T18:57:54.315Z,24.70
2019-06-07T19:00:24.370Z,24.30
2019-06-07T19:02:54.060Z,24.10
2019-06-07T19:05:24.449Z,23.90
2019-06-07T19:07:54.660Z,23.80
2019-06-07T19:10:24.220Z,23.60
2019-06-07T19:12:53.563Z,23.50
2019-06-07T19:15:23.388Z,23.40
2019-06-07T19:17:53.892Z,23.40
2019-06-07T19:20:23.596Z,23.30
2019-06-07T19:22:52.630Z,23.20
2019-06-07T19:25:22.381Z,23.10
2019-06-07T19:27:52.680Z,23.10
2019-06-07T19:30:22.949Z,23.00
2019-06-07T19:32:53.037Z,23.00
2019-06-07T19:35:22.723Z,22.80
2019-06-07T19:37:51.937Z,22.80
2019-06-07T19:40:21.316Z,22.70
2019-06-07T19:42:50.346Z,22.70
2019-06-07T19:45:34.986Z,22.60
2019-06-07T19:47:50.322Z,22.60
2019-06-07T19:50:19.731Z,22.50
2019-06-07T19:52:48.766Z,22.60
2019-06-07T19:55:17.909Z,22.50
2019-06-07T19:57:49.981Z,22.40
2019-06-07T20:00:19.030Z,22.40
2019-06-07T20:02:49.534Z,22.40
2019-06-07T20:05:18.905Z,22.30
2019-06-07T20:07:47.944Z,22.30
2019-06-07T20:10:18.996Z,22.20
2019-06-07T20:12:48.217Z,22.20
2019-06-07T20:15:28.882Z,22.20
2019-06-07T20:17:48.299Z,22.10
2019-06-07T20:20:17.644Z,22.00
2019-06-07T20:22:46.728Z,22.00
2019-06-07T20:25:16.621Z,22.00
2019-06-07T20:27:46.209Z,21.90
2019-06-07T20:30:15.784Z,21.90
2019-06-07T20:32:44.858Z,21.80
2019-06-07T20:35:14.390Z,21.80
2019-06-07T20:37:43.451Z,21.80
2019-06-07T20:40:23.739Z,21.80
2019-06-07T20:42:43.324Z,21.70
2019-06-07T20:45:12.778Z,21.70
2019-06-07T20:47:41.766Z,21.70
2019-06-07T20:50:11.393Z,21.60
2019-06-07T20:52:40.447Z,21.50
2019-06-07T20:55:10.026Z,21.50
2019-06-07T20:57:39.123Z,21.40
2019-06-07T21:00:17.294Z,21.40
2019-06-07T21:02:41.247Z,21.30
2019-06-07T21:05:10.369Z,21.30
2019-06-07T21:07:39.468Z,21.20
2019-06-07T21:10:10.602Z,21.20
2019-06-07T21:12:40.018Z,21.10
2019-06-07T21:15:13.449Z,21.10
2019-06-07T21:17:40.684Z,21.00
2019-06-07T21:20:14.459Z,21.00
2019-06-07T21:22:43.326Z,21.00
2019-06-07T21:25:12.722Z,20.90
2019-06-07T21:27:44.644Z,20.90
2019-06-07T21:30:14.456Z,20.90
2019-06-07T21:32:43.537Z,20.80
2019-06-07T21:35:12.854Z,20.80
2019-06-07T21:37:41.954Z,20.80
2019-06-07T21:40:12.205Z,20.80
2019-06-07T21:42:41.338Z,20.70
2019-06-07T21:45:13.686Z,20.60
2019-06-07T21:47:43.843Z,20.50
2019-06-07T21:50:13.268Z,20.50
2019-06-07T21:52:42.369Z,20.50
2019-06-07T21:55:11.689Z,20.50
2019-06-07T21:57:40.786Z,20.40
2019-06-07T22:00:16.193Z,20.40
2019-06-07T22:02:45.803Z,20.40
2019-06-07T22:05:16.268Z,20.40
2019-06-07T22:07:45.457Z,20.40
2019-06-07T22:10:14.798Z,20.30
2019-06-07T22:12:44.523Z,20.30
2019-06-07T22:15:32.158Z,20.30
2019-06-07T22:17:44.822Z,20.20
2019-06-07T22:20:14.773Z,20.20
2019-06-07T22:22:43.975Z,20.20
2019-06-07T22:25:13.139Z,20.20
2019-06-07T22:27:42.267Z,20.20
2019-06-07T22:30:12.574Z,20.20
2019-06-07T22:32:41.692Z,20.20
2019-06-07T22:35:11.008Z,20.10
2019-06-07T22:37:40.089Z,20.00
2019-06-07T22:40:10.730Z,19.90
2019-06-07T22:42:39.959Z,19.90
2019-06-07T22:45:10.974Z,19.80
2019-06-07T22:47:40.252Z,19.80
2019-06-07T22:50:10.823Z,19.80
2019-06-07T22:52:40.108Z,19.80
2019-06-07T22:55:10.326Z,19.90
2019-06-07T22:57:56.230Z,19.80
2019-06-07T23:00:26.264Z,19.90
2019-06-07T23:02:55.708Z,19.80
2019-06-07T23:05:24.811Z,19.80
2019-06-07T23:07:53.884Z,19.70
2019-06-07T23:10:23.839Z,19.60
2019-06-07T23:12:52.976Z,19.60
2019-06-07T23:15:22.097Z,19.60
2019-06-07T23:17:51.171Z,19.60
2019-06-07T23:20:20.513Z,19.50
2019-06-07T23:22:49.554Z,19.50
2019-06-07T23:25:22.366Z,19.50
2019-06-07T23:27:49.570Z,19.50
2019-06-07T23:30:18.987Z,19.50
2019-06-07T23:32:47.958Z,19.50
2019-06-07T23:35:17.448Z,19.50
2019-06-07T23:37:46.541Z,19.60
2019-06-07T23:40:17.444Z,19.50
2019-06-07T23:42:46.450Z,19.50
2019-06-07T23:45:15.659Z,19.50
2019-06-07T23:47:44.780Z,19.50
2019-06-07T23:50:15.683Z,19.50
2019-06-07T23:52:44.830Z,19.40
2019-06-07T23:55:15.778Z,19.40
2019-06-07T23:57:44.828Z,19.40
